Time;durP1;ratioP1;P1;durP2;ratioP2;P2;SDS_P1;SDS_P2;PMS_P1;PMS_P2;Temp;Humidity;BMP_temperature;BMP_pressure;BME280_temperature;BME280_humidity;BME280_pressure;Samples;Min_cycle;Max_cycle;Signal;HPM_P1;HPM_P2
2022/09/02 00:01:18;;;;;;;5.97;0.70;;;;;;;9.41;61.66;98883.69;4995334;28;20572;-70
2022/09/02 00:03:46;;;;;;;0.85;0.60;;;;;;;9.42;61.66;98879.75;4995656;28;20046;-70
2022/09/02 00:06:13;;;;;;;0.45;0.43;;;;;;;9.43;61.72;98881.38;4975740;28;20047;-73
2022/09/02 00:08:41;;;;;;;0.63;0.60;;;;;;;9.44;60.91;98889.38;4958303;28;20069;-70
2022/09/02 00:11:13;;;;;;;1.05;0.60;;;;;;;9.45;61.42;98884.63;4975973;28;20141;-70
2022/09/02 00:13:42;;;;;;;2.25;0.80;;;;;;;9.43;60.89;98875.81;4958185;28;20050;-70
2022/09/02 00:16:10;;;;;;;1.95;0.70;;;;;;;9.46;61.18;98892.63;4975847;28;20066;-73
2022/09/02 00:18:38;;;;;;;0.43;0.40;;;;;;;9.50;60.48;98889.97;4958746;28;20055;-70
2022/09/02 00:21:12;;;;;;;0.68;0.40;;;;;;;9.49;61.18;98885.56;4976372;28;20070;-70
2022/09/02 00:23:41;;;;;;;1.70;0.85;;;;;;;9.47;61.10;98888.69;4975668;28;20403;-69
2022/09/02 00:26:08;;;;;;;0.50;0.50;;;;;;;9.46;61.43;98883.47;4986456;28;20052;-67
2022/09/02 00:28:35;;;;;;;0.73;0.50;;;;;;;9.48;60.59;98883.94;5014551;28;20132;-71
2022/09/02 00:31:02;;;;;;;1.98;0.50;;;;;;;9.55;60.43;98896.13;5014257;28;20416;-67
2022/09/02 00:33:30;;;;;;;3.05;0.65;;;;;;;9.60;61.27;98893.16;5014039;28;20390;-67
2022/09/02 00:36:02;;;;;;;0.95;0.60;;;;;;;9.67;60.57;98892.56;5014383;28;20053;-70
2022/09/02 00:38:33;;;;;;;0.90;0.57;;;;;;;9.67;60.83;98892.56;5014126;28;20053;-71
2022/09/02 00:41:04;;;;;;;0.70;0.55;;;;;;;9.73;61.08;98885.63;5014266;28;20049;-70
2022/09/02 00:43:40;;;;;;;2.05;0.70;;;;;;;9.74;60.60;98882.53;5003068;28;20093;-66
2022/09/02 00:46:08;;;;;;;1.13;0.60;;;;;;;9.69;60.41;98882.75;4994335;28;20515;-68
2022/09/02 00:48:40;;;;;;;0.88;0.50;;;;;;;9.64;60.41;98882.97;4994524;28;20057;-67
2022/09/02 00:51:09;;;;;;;1.77;0.70;;;;;;;9.68;60.31;98889.44;4993167;28;20070;-66
2022/09/02 00:53:39;;;;;;;0.60;0.50;;;;;;;9.69;60.45;98885.53;4993345;28;20076;-67
2022/09/02 00:56:12;;;;;;;1.40;0.60;;;;;;;9.71;59.58;98885.19;4994152;28;20066;-71
2022/09/02 00:58:42;;;;;;;0.65;0.40;;;;;;;9.71;59.91;98885.19;4994394;28;20057;-67
2022/09/02 01:01:10;;;;;;;0.57;0.40;;;;;;;9.71;59.72;98888.75;4994377;28;20050;-67
2022/09/02 01:03:39;;;;;;;0.63;0.50;;;;;;;9.70;60.12;98891.88;4994162;28;20077;-67
2022/09/02 01:06:09;;;;;;;1.00;0.70;;;;;;;9.71;59.73;98887.97;4957677;28;20058;-66
2022/09/02 01:08:38;;;;;;;0.75;0.50;;;;;;;9.76;59.85;98890.50;4974686;28;20093;-67
2022/09/02 01:11:05;;;;;;;1.63;0.55;;;;;;;9.78;59.90;98891.81;4974831;28;20510;-71
2022/09/02 01:13:38;;;;;;;1.20;0.63;;;;;;;9.80;60.17;98885.91;4974582;28;20090;-67
2022/09/02 01:16:12;;;;;;;1.10;0.60;;;;;;;9.75;60.11;98883.34;4974483;28;20064;-70
2022/09/02 01:18:43;;;;;;;0.88;0.60;;;;;;;9.74;60.50;98876.19;4957743;28;20057;-73
2022/09/02 01:21:10;;;;;;;1.40;0.65;;;;;;;9.75;61.26;98880.56;4974440;28;20054;-73
2022/09/02 01:23:37;;;;;;;0.68;0.50;;;;;;;9.70;61.24;98875.22;4976730;28;20043;-79
2022/09/02 01:26:06;;;;;;;1.65;0.73;;;;;;;9.70;61.82;98881.59;5013950;28;20070;-78
2022/09/02 01:28:34;;;;;;;1.85;0.60;;;;;;;9.71;61.56;98882.41;5013411;28;20053;-75
2022/09/02 01:31:01;;;;;;;1.00;0.60;;;;;;;9.71;61.81;98882.41;5013993;28;20149;-71
2022/09/02 01:33:28;;;;;;;1.48;0.80;;;;;;;9.66;62.94;98882.63;4997998;28;20049;-71
2022/09/02 01:35:58;;;;;;;0.70;0.52;;;;;;;9.58;62.99;98889.06;4993715;28;20061;-69
2022/09/02 01:38:25;;;;;;;1.13;0.60;;;;;;;9.45;63.78;98887.41;4993819;28;20050;-68
2022/09/02 01:40:52;;;;;;;0.82;0.52;;;;;;;9.28;64.76;98900.31;4993741;28;20061;-70
2022/09/02 01:43:23;;;;;;;0.77;0.60;;;;;;;9.16;65.07;98900.25;4993575;28;20072;-68
2022/09/02 01:45:53;;;;;;;1.52;0.70;;;;;;;9.17;65.30;98906.59;4993653;28;20394;-70
2022/09/02 01:48:20;;;;;;;3.07;1.00;;;;;;;9.21;65.53;98907.53;4993527;28;20061;-68
2022/09/02 01:50:56;;;;;;;0.60;0.40;;;;;;;9.16;65.69;98899.41;4993470;28;20352;-72
2022/09/02 01:53:23;;;;;;;1.55;0.57;;;;;;;9.06;65.26;98914.50;4993421;28;20085;-69
2022/09/02 01:55:50;;;;;;;1.95;0.60;;;;;;;9.07;66.07;98904.22;4993208;28;20425;-68
2022/09/02 01:58:17;;;;;;;0.95;0.60;;;;;;;9.10;66.07;98907.16;4993404;28;20421;-69
2022/09/02 02:00:44;;;;;;;0.73;0.55;;;;;;;9.13;66.29;98912.03;4993525;28;20441;-73
2022/09/02 02:03:11;;;;;;;0.60;0.50;;;;;;;9.08;66.41;98920.53;4976180;28;20057;-69
2022/09/02 02:05:38;;;;;;;0.90;0.57;;;;;;;9.01;66.67;98916.69;4972602;28;20058;-68
2022/09/02 02:08:05;;;;;;;0.77;0.50;;;;;;;9.07;66.50;98912.56;4972496;28;20094;-69
2022/09/02 02:10:35;;;;;;;2.25;0.50;;;;;;;9.13;66.49;98917.56;4973887;28;20437;-69
2022/09/02 02:13:02;;;;;;;0.43;0.43;;;;;;;9.11;66.58;98924.59;4973874;28;20097;-71
2022/09/02 02:15:29;;;;;;;0.50;0.50;;;;;;;9.12;66.13;98915.13;4973834;28;20601;-68
2022/09/02 02:17:55;;;;;;;0.60;0.50;;;;;;;9.15;66.71;98928.31;4974286;28;20078;-71
2022/09/02 02:20:22;;;;;;;0.95;0.50;;;;;;;9.05;66.79;98920.38;4973805;28;20050;-72
2022/09/02 02:22:50;;;;;;;0.47;0.40;;;;;;;9.02;66.73;98921.06;4973827;28;20047;-73
2022/09/02 02:25:17;;;;;;;2.47;0.60;;;;;;;9.05;66.72;98925.94;4973840;28;20053;-68
2022/09/02 02:27:44;;;;;;;0.57;0.40;;;;;;;9.06;66.63;98917.28;4973730;28;20051;-72
2022/09/02 02:30:15;;;;;;;0.50;0.50;;;;;;;9.03;66.42;98923.50;4974258;28;20057;-69
2022/09/02 02:32:42;;;;;;;0.40;0.40;;;;;;;8.95;66.64;98921.59;4973709;28;20053;-72
2022/09/02 02:35:10;;;;;;;0.50;0.40;;;;;;;8.89;67.07;98927.69;4973687;28;20556;-69
2022/09/02 02:37:37;;;;;;;0.80;0.40;;;;;;;8.79;67.17;98928.88;4973495;28;20057;-69
2022/09/02 02:40:06;;;;;;;5.72;0.47;;;;;;;8.71;66.99;98935.28;4973742;28;20057;-69
2022/09/02 02:42:34;;;;;;;0.50;0.50;;;;;;;8.69;67.37;98934.84;4973888;28;20125;-68
2022/09/02 02:45:02;;;;;;;0.40;0.40;;;;;;;8.76;67.17;98943.44;4973308;28;20055;-68
2022/09/02 02:47:31;;;;;;;2.20;0.57;;;;;;;8.74;66.86;98942.94;4972012;28;20085;-69
2022/09/02 02:49:58;;;;;;;0.85;0.47;;;;;;;8.77;66.63;98936.72;4973586;28;20082;-69
2022/09/02 02:52:26;;;;;;;0.63;0.47;;;;;;;8.80;66.92;98938.03;4973351;28;20069;-69
2022/09/02 02:54:52;;;;;;;1.08;0.85;;;;;;;8.81;66.25;98943.25;4971236;28;20058;-70
2022/09/02 02:57:19;;;;;;;3.13;0.50;;;;;;;8.88;66.18;98940.75;4992753;28;20421;-70
2022/09/02 02:59:46;;;;;;;2.28;0.40;;;;;;;8.93;65.72;98951.66;4993026;28;20064;-72
2022/09/02 03:02:13;;;;;;;1.75;0.50;;;;;;;8.97;66.05;98952.59;4992688;28;20050;-68
2022/09/02 03:04:40;;;;;;;3.20;0.50;;;;;;;9.05;65.74;98953.69;4988174;28;20078;-73
2022/09/02 03:07:08;;;;;;;1.10;0.63;;;;;;;9.08;65.37;98958.56;4976873;28;20493;-72
2022/09/02 03:09:35;;;;;;;0.55;0.50;;;;;;;9.05;65.11;98954.50;4977331;28;20162;-68
2022/09/02 03:12:02;;;;;;;0.57;0.50;;;;;;;9.12;64.85;98965.88;4977072;28;20054;-69
2022/09/02 03:14:30;;;;;;;0.40;0.40;;;;;;;9.10;65.25;98967.38;4959988;28;20140;-68
2022/09/02 03:16:57;;;;;;;10.00;0.65;;;;;;;9.07;65.04;98955.00;4976645;28;20138;-68
2022/09/02 03:19:24;;;;;;;3.53;1.02;;;;;;;9.11;64.65;98955.09;4976527;28;20046;-68
2022/09/02 03:21:51;;;;;;;0.88;0.50;;;;;;;9.14;64.85;98963.56;4976477;28;20462;-69
2022/09/02 03:24:18;;;;;;;0.43;0.43;;;;;;;9.09;64.80;98961.00;4976798;28;20053;-72
2022/09/02 03:26:45;;;;;;;0.40;0.40;;;;;;;9.12;64.29;98963.09;4985734;28;20042;-68
2022/09/02 03:29:12;;;;;;;0.80;0.50;;;;;;;9.16;64.60;98955.75;5015896;28;20137;-68
2022/09/02 03:31:39;;;;;;;0.82;0.50;;;;;;;9.11;64.34;98952.34;5015629;28;20077;-70
2022/09/02 03:34:06;;;;;;;2.85;0.60;;;;;;;9.19;64.09;98966.16;5014167;28;20073;-70
2022/09/02 03:36:40;;;;;;;3.13;0.50;;;;;;;9.27;64.02;98967.25;5015526;28;20050;-68
2022/09/02 03:39:08;;;;;;;1.67;0.55;;;;;;;9.29;63.60;98965.75;5015175;28;20081;-67
2022/09/02 03:41:36;;;;;;;0.47;0.47;;;;;;;9.31;63.57;98968.19;5015648;28;20062;-74
2022/09/02 03:44:04;;;;;;;3.58;0.50;;;;;;;9.30;63.33;98963.78;5000231;28;20564;-76
2022/09/02 03:46:31;;;;;;;0.88;0.57;;;;;;;9.40;62.42;98971.72;4995807;28;20421;-75
2022/09/02 03:48:58;;;;;;;1.45;0.60;;;;;;;9.43;62.67;98971.03;4996090;28;20054;-74
2022/09/02 03:51:26;;;;;;;1.45;0.40;;;;;;;9.53;62.23;98969.81;4978260;28;20133;-74
2022/09/02 03:53:55;;;;;;;1.45;0.40;;;;;;;9.58;62.44;98967.63;4996269;28;20529;-73
2022/09/02 03:56:23;;;;;;;6.60;0.52;;;;;;;9.62;61.77;98973.31;4995622;28;20053;-74
2022/09/02 03:58:52;;;;;;;0.30;0.30;;;;;;;9.70;61.28;98975.19;4995986;28;20050;-74
2022/09/02 04:01:24;;;;;;;0.30;0.30;;;;;;;9.68;61.43;98986.66;4995579;28;20050;-73
2022/09/02 04:03:55;;;;;;;1.15;0.57;;;;;;;9.72;60.90;98989.56;4994195;28;20052;-73
2022/09/02 04:06:23;;;;;;;0.40;0.40;;;;;;;9.83;60.26;98988.00;4975983;28;20066;-74
2022/09/02 04:08:52;;;;;;;0.28;0.28;;;;;;;9.90;60.64;98996.59;4956504;29;20529;-75
2022/09/02 04:11:21;;;;;;;0.30;0.30;;;;;;;9.83;59.54;98986.00;4956574;29;20138;-74
2022/09/02 04:13:51;;;;;;;1.00;0.60;;;;;;;9.84;59.47;98995.16;4955985;28;20048;-70
2022/09/02 04:16:27;;;;;;;0.40;0.40;;;;;;;9.76;60.07;98996.06;4956588;29;20062;-68
2022/09/02 04:19:00;;;;;;;0.45;0.35;;;;;;;9.75;59.91;98994.44;4956365;29;20062;-68
2022/09/02 04:21:31;;;;;;;0.30;0.30;;;;;;;9.82;59.69;98995.50;4956511;29;20051;-72
2022/09/02 04:24:00;;;;;;;1.35;0.45;;;;;;;9.88;59.29;99004.44;4956041;29;20503;-69
2022/09/02 04:26:28;;;;;;;0.40;0.40;;;;;;;9.78;59.84;98988.19;4956303;29;20509;-69
2022/09/02 04:28:55;;;;;;;1.27;0.60;;;;;;;9.88;60.38;98998.88;4956315;29;20074;-69
2022/09/02 04:31:24;;;;;;;0.50;0.50;;;;;;;10.02;59.46;98999.41;4939559;29;20384;-70
2022/09/02 04:33:52;;;;;;;0.60;0.60;;;;;;;10.09;58.57;98997.72;4956717;28;20043;-68
2022/09/02 04:36:21;;;;;;;0.85;0.50;;;;;;;10.15;58.67;99003.88;4956170;29;20066;-68
2022/09/02 04:38:50;;;;;;;0.55;0.38;;;;;;;10.12;58.45;99004.56;4955982;29;20503;-68
2022/09/02 04:41:23;;;;;;;0.30;0.30;;;;;;;10.17;58.57;98998.78;4955634;29;20510;-72
2022/09/02 04:43:53;;;;;;;0.68;0.47;;;;;;;10.13;58.67;99008.97;4955988;29;20039;-68
2022/09/02 04:46:20;;;;;;;2.97;0.60;;;;;;;10.10;58.54;99012.44;4955983;29;20074;-69
2022/09/02 04:48:59;;;;;;;5.55;0.60;;;;;;;10.14;58.70;99008.63;4955503;29;20529;-69
2022/09/02 04:51:26;;;;;;;3.63;0.50;;;;;;;10.27;58.85;99006.72;4955835;29;20062;-72
2022/09/02 04:53:54;;;;;;;0.90;0.40;;;;;;;10.37;58.12;99014.59;4968365;28;20082;-70
2022/09/02 04:56:24;;;;;;;0.80;0.60;;;;;;;10.40;58.28;99019.47;4994249;28;20509;-70
2022/09/02 04:58:52;;;;;;;;;;;;;;;10.24;59.11;99024.03;4994896;28;20068;-69
2022/09/02 05:01:22;;;;;;;0.60;0.50;;;;;;;10.21;59.24;99013.63;4994955;28;20053;-69
2022/09/02 05:03:50;;;;;;;;;;;;;;;10.10;59.87;99018.00;4991916;28;20129;-69
2022/09/02 05:06:21;;;;;;;0.40;0.40;;;;;;;10.10;60.08;99027.13;4955244;29;19949;-69
2022/09/02 05:08:51;;;;;;;1.55;0.52;;;;;;;10.14;60.00;99025.31;4955276;29;20465;-68
2022/09/02 05:11:21;;;;;;;0.60;0.50;;;;;;;10.34;59.66;99026.41;4955743;29;20070;-69
2022/09/02 05:13:52;;;;;;;1.23;0.57;;;;;;;10.59;59.28;99039.19;4955277;29;20134;-69
2022/09/02 05:16:26;;;;;;;2.80;0.55;;;;;;;10.74;59.09;99030.19;4937986;29;20051;-68
2022/09/02 05:18:54;;;;;;;0.40;0.40;;;;;;;10.63;59.30;99031.81;4955286;29;20106;-69
2022/09/02 05:21:22;;;;;;;0.63;0.50;;;;;;;10.71;59.29;99042.81;4955256;29;20510;-69
2022/09/02 05:23:51;;;;;;;1.75;0.47;;;;;;;10.85;58.68;99036.94;4955515;29;20067;-68
2022/09/02 05:26:20;;;;;;;0.80;0.50;;;;;;;10.80;59.42;99039.94;4936827;29;20059;-70
2022/09/02 05:28:47;;;;;;;2.63;0.50;;;;;;;10.78;59.79;99045.03;4954898;29;20059;-69
2022/09/02 05:31:17;;;;;;;0.43;0.40;;;;;;;10.94;59.86;99051.53;4955388;29;20066;-69
2022/09/02 05:33:45;;;;;;;1.05;0.47;;;;;;;11.13;58.46;99051.75;4956324;28;20525;-68
2022/09/02 05:36:17;;;;;;;0.43;0.40;;;;;;;11.43;57.86;99050.34;4993298;28;20137;-69
2022/09/02 05:38:44;;;;;;;0.90;0.50;;;;;;;11.66;57.72;99051.50;4992469;28;20391;-70
2022/09/02 05:41:16;;;;;;;0.90;0.50;;;;;;;11.84;56.57;99055.66;4962345;28;20058;-69
2022/09/02 05:43:44;;;;;;;0.60;0.47;;;;;;;11.70;56.46;99060.81;4957916;28;20043;-69
2022/09/02 05:46:16;;;;;;;2.53;0.40;;;;;;;11.51;57.08;99057.78;4954458;29;20065;-68
2022/09/02 05:51:33;;;;;;;0.55;0.32;;;;;;;11.38;56.24;99070.09;4955107;28;20153;-68
2022/09/02 05:54:00;;;;;;;0.43;0.40;;;;;;;11.11;56.64;99077.16;4971303;28;20494;-70
2022/09/02 05:56:27;;;;;;;0.90;0.60;;;;;;;10.87;56.84;99070.78;4955220;28;20414;-69
2022/09/02 05:58:57;;;;;;;4.07;0.60;;;;;;;10.90;56.74;99065.31;4954678;29;20051;-69
2022/09/02 06:01:28;;;;;;;0.40;0.40;;;;;;;11.04;56.59;99067.78;4963661;28;20055;-70
2022/09/02 06:03:56;;;;;;;1.88;0.50;;;;;;;11.05;55.16;99072.19;4954838;28;20138;-69
2022/09/02 06:06:23;;;;;;;1.40;0.45;;;;;;;10.92;55.71;99073.31;4962088;28;20051;-69
2022/09/02 06:08:50;;;;;;;0.30;0.30;;;;;;;10.93;55.77;99077.75;4980804;28;20066;-69
2022/09/02 06:11:18;;;;;;;1.30;0.65;;;;;;;10.95;55.27;99076.25;4973419;28;20086;-69
2022/09/02 06:13:45;;;;;;;0.93;0.60;;;;;;;11.04;55.78;99078.91;4971720;28;20042;-69
2022/09/02 06:16:14;;;;;;;0.73;0.40;;;;;;;11.03;55.80;99080.06;4979250;28;20058;-69
2022/09/02 06:18:43;;;;;;;0.45;0.40;;;;;;;11.18;55.06;99084.13;4993487;28;20134;-68
2022/09/02 06:21:11;;;;;;;0.52;0.40;;;;;;;11.20;55.03;99087.38;4980925;28;20054;-68
2022/09/02 06:23:39;;;;;;;0.50;0.50;;;;;;;11.24;55.00;99089.13;4982534;28;20498;-69
2022/09/02 06:26:08;;;;;;;0.65;0.38;;;;;;;11.26;54.86;99095.16;4985559;28;20054;-69
2022/09/02 06:28:37;;;;;;;1.40;0.45;;;;;;;11.22;54.91;99099.00;4992714;28;20088;-70
2022/09/02 06:31:13;;;;;;;1.70;0.50;;;;;;;11.16;55.00;99098.41;4987941;28;20046;-68
2022/09/02 06:33:45;;;;;;;1.05;0.70;;;;;;;11.13;55.24;99101.88;4971930;28;20101;-68
2022/09/02 06:36:15;;;;;;;0.45;0.45;;;;;;;11.18;54.76;99121.16;4974948;28;20052;-69
2022/09/02 06:38:47;;;;;;;4.05;0.45;;;;;;;11.38;55.01;99114.66;4988809;28;20094;-69
2022/09/02 06:41:16;;;;;;;0.55;0.45;;;;;;;11.46;54.96;99122.06;4977412;28;20467;-69
2022/09/02 06:43:43;;;;;;;0.45;0.40;;;;;;;11.78;54.49;99117.56;4988904;28;20509;-69
2022/09/02 06:46:18;;;;;;;0.40;0.40;;;;;;;12.22;53.02;99122.09;4979857;28;20543;-69
2022/09/02 06:48:47;;;;;;;0.90;0.30;;;;;;;12.48;52.30;99126.06;4996463;28;20077;-69
2022/09/02 06:51:19;;;;;;;3.27;0.50;;;;;;;12.58;52.00;99136.72;4996506;28;20047;-69
2022/09/02 06:53:46;;;;;;;0.43;0.40;;;;;;;12.97;51.34;99135.00;4993320;28;20062;-69
2022/09/02 06:56:13;;;;;;;1.85;1.50;;;;;;;13.21;50.44;99136.84;4978774;28;20510;-71
2022/09/02 06:58:41;;;;;;;0.63;0.43;;;;;;;13.52;49.37;99132.06;4977325;28;20399;-69
2022/09/02 07:01:16;;;;;;;2.80;0.40;;;;;;;13.49;49.44;99140.34;4977100;28;20232;-69
2022/09/02 07:06:35;;;;;;;1.40;0.60;;;;;;;14.33;47.23;99139.59;4993195;28;20046;-69
2022/09/02 07:09:04;;;;;;;1.98;0.50;;;;;;;14.44;46.74;99144.22;4976621;28;20062;-69
2022/09/02 07:11:31;;;;;;;0.85;0.40;;;;;;;14.46;46.24;99135.47;4991589;28;20050;-69
2022/09/02 07:14:01;;;;;;;0.68;0.40;;;;;;;14.26;46.70;99145.00;4978808;28;20047;-68
2022/09/02 07:16:32;;;;;;;0.38;0.38;;;;;;;13.87;47.10;99137.69;4982497;28;20397;-69
2022/09/02 07:19:00;;;;;;;0.65;0.50;;;;;;;13.15;48.37;99143.88;4990382;28;20160;-69
2022/09/02 07:21:28;;;;;;;0.30;0.30;;;;;;;13.15;48.37;99149.47;4988166;28;20486;-70
2022/09/02 07:23:58;;;;;;;0.52;0.40;;;;;;;13.10;48.63;99147.75;4980436;28;20521;-68
2022/09/02 07:26:26;;;;;;;1.13;0.50;;;;;;;13.01;48.38;99155.47;4969207;28;20057;-68
2022/09/02 07:28:53;;;;;;;1.10;0.63;;;;;;;13.20;48.09;99144.41;4976848;28;20073;-68
2022/09/02 07:31:22;;;;;;;1.10;0.60;;;;;;;13.59;47.56;99162.19;4984173;28;20101;-69
2022/09/02 07:33:49;;;;;;;0.60;0.40;;;;;;;13.88;46.61;99153.28;5002402;28;20531;-69
2022/09/02 07:36:20;;;;;;;1.10;0.50;;;;;;;13.84;46.91;99161.59;4985814;28;20129;-68
2022/09/02 07:38:47;;;;;;;1.88;0.60;;;;;;;13.77;46.47;99155.81;4975801;28;20047;-68
2022/09/02 07:41:14;;;;;;;0.85;0.50;;;;;;;13.73;46.43;99159.72;4979048;28;20078;-68
2022/09/02 07:43:41;;;;;;;0.30;0.30;;;;;;;14.06;45.04;99137.72;4989378;28;20141;-69
2022/09/02 07:46:12;;;;;;;1.17;0.45;;;;;;;13.68;45.69;99154.41;4977155;28;20528;-69
2022/09/02 07:48:40;;;;;;;1.60;0.45;;;;;;;13.09;47.09;99157.31;4976061;28;20061;-69
2022/09/02 07:51:07;;;;;;;1.15;0.40;;;;;;;12.59;48.35;99165.44;4975719;28;20528;-69
2022/09/02 07:53:35;;;;;;;3.60;0.60;;;;;;;12.26;49.79;99162.84;4977915;28;20532;-70
2022/09/02 07:56:03;;;;;;;0.63;0.30;;;;;;;11.93;51.55;99180.94;4980513;28;20047;-69
2022/09/02 07:58:30;;;;;;;0.50;0.38;;;;;;;11.80;51.74;99185.72;4975763;28;20510;-69
2022/09/02 08:00:58;;;;;;;0.80;0.55;;;;;;;12.15;51.33;99183.22;4985683;28;20073;-70
2022/09/02 08:03:25;;;;;;;1.13;0.50;;;;;;;12.09;51.16;99179.88;4981620;28;20062;-69
2022/09/02 08:05:53;;;;;;;0.40;0.40;;;;;;;11.91;52.19;99184.09;4976152;28;20520;-69
2022/09/02 08:08:20;;;;;;;1.10;0.57;;;;;;;12.15;52.00;99184.06;4983713;28;20525;-69
2022/09/02 08:10:49;;;;;;;4.68;0.75;;;;;;;17.10;42.46;99177.03;4977516;28;20425;-69
2022/09/02 08:13:17;;;;;;;1.25;0.57;;;;;;;20.60;35.28;99160.88;4976523;28;20069;-69
2022/09/02 08:15:45;;;;;;;2.70;0.50;;;;;;;20.90;34.04;99177.34;4977490;28;20065;-69
2022/09/02 08:18:24;;;;;;;0.68;0.47;;;;;;;18.54;37.07;99176.31;4994887;28;20054;-69
2022/09/02 08:20:51;;;;;;;1.75;0.30;;;;;;;16.57;40.86;99187.63;4994051;28;20054;-69
2022/09/02 08:23:18;;;;;;;9.38;3.85;;;;;;;15.28;43.99;99203.13;4994911;28;20053;-70
2022/09/02 08:26:04;;;;;;;0.90;0.63;;;;;;;14.53;46.25;99220.38;4994629;28;20141;-69
2022/09/02 08:28:31;;;;;;;2.67;0.70;;;;;;;14.59;46.86;99221.72;4986548;28;20555;-69
2022/09/02 08:30:58;;;;;;;0.52;0.50;;;;;;;15.14;45.97;99225.25;4990719;28;20084;-69
2022/09/02 08:33:25;;;;;;;0.90;0.40;;;;;;;16.08;44.49;99221.38;4992492;28;20046;-69
2022/09/02 08:35:52;;;;;;;1.27;0.55;;;;;;;18.84;39.92;99215.50;4991752;28;20053;-69
2022/09/02 08:38:21;;;;;;;1.15;0.40;;;;;;;19.02;38.55;99222.84;4994016;28;20418;-69
2022/09/02 08:40:49;;;;;;;0.80;0.60;;;;;;;17.63;41.20;99218.63;4987100;28;20446;-69
2022/09/02 08:43:55;;;;;;;0.52;0.50;;;;;;;21.15;35.08;99226.16;4990273;28;20050;-70
2022/09/02 08:46:25;;;;;;;1.08;0.60;;;;;;;22.61;32.44;99217.03;4950636;28;20055;-69
2022/09/02 08:48:58;;;;;;;0.50;0.50;;;;;;;26.62;27.33;99215.00;4975278;28;20042;-69
2022/09/02 08:51:30;;;;;;;0.98;0.60;;;;;;;29.96;23.70;99212.44;4974738;28;20057;-69
2022/09/02 08:54:08;;;;;;;2.20;0.40;;;;;;;28.61;24.94;99215.06;4974987;28;20050;-69
2022/09/02 08:56:37;;;;;;;0.77;0.50;;;;;;;24.57;28.52;99225.63;4974519;28;20101;-71
2022/09/02 08:59:05;;;;;;;1.60;0.40;;;;;;;22.35;30.83;99226.97;4975458;28;20098;-71
2022/09/02 09:01:49;;;;;;;2.00;0.50;;;;;;;20.37;33.61;99231.16;4976977;28;20081;-69
2022/09/02 09:04:42;;;;;;;4.43;0.60;;;;;;;18.81;36.22;99233.22;4975078;28;20381;-69
2022/09/02 09:07:15;;;;;;;0.55;0.40;;;;;;;18.82;35.86;99234.81;4980452;28;20046;-69
2022/09/02 09:09:52;;;;;;;0.90;0.47;;;;;;;19.17;35.12;99230.16;4994107;28;20060;-70
2022/09/02 09:12:22;;;;;;;2.75;1.05;;;;;;;19.42;35.15;99236.72;4993122;28;20559;-70
2022/09/02 09:15:09;;;;;;;1.20;0.60;;;;;;;20.13;33.91;99260.25;4991626;28;20046;-69
2022/09/02 09:17:43;;;;;;;8.48;0.60;;;;;;;18.97;35.17;99237.31;4991291;28;20062;-70
2022/09/02 09:20:18;;;;;;;0.47;0.43;;;;;;;18.14;36.03;99238.38;4986515;28;20064;-68
2022/09/02 09:22:48;;;;;;;0.35;0.30;;;;;;;17.42;37.16;99240.06;4979021;28;20163;-67
2022/09/02 09:25:16;;;;;;;4.38;0.50;;;;;;;17.54;36.76;99248.25;4986621;28;20129;-69
2022/09/02 09:27:46;;;;;;;0.75;0.40;;;;;;;16.90;37.42;99245.88;4989417;28;20112;-69
2022/09/02 09:30:13;;;;;;;;;;;;;;;16.27;38.30;99248.53;4980661;28;20399;-68
2022/09/02 09:32:59;;;;;;;0.47;0.40;;;;;;;16.25;38.97;99259.31;4982837;28;19934;-71
2022/09/02 09:35:27;;;;;;;1.52;0.40;;;;;;;15.72;38.94;99258.44;4986036;28;20056;-68
2022/09/02 09:37:55;;;;;;;1.85;0.60;;;;;;;15.21;40.35;99276.63;4984667;28;20054;-65
2022/09/02 09:40:29;;;;;;;5.85;0.40;;;;;;;14.67;42.33;99273.09;4961098;28;20081;-74
2022/09/02 09:42:58;;;;;;;3.63;0.50;;;;;;;14.41;43.25;99286.88;4976450;28;20054;-71
2022/09/02 09:45:34;;;;;;;3.63;0.50;;;;;;;14.53;42.99;99286.75;4979837;28;20617;-70
2022/09/02 09:48:28;;;;;;;1.33;0.57;;;;;;;14.23;43.68;99291.19;4985760;28;20422;-70
2022/09/02 09:50:54;;;;;;;4.50;0.65;;;;;;;13.99;44.14;99283.81;4991486;28;20142;-73
2022/09/02 09:53:33;;;;;;;1.65;0.60;;;;;;;13.72;44.64;99295.09;4982038;28;20149;-70
2022/09/02 09:56:15;;;;;;;0.47;0.40;;;;;;;13.57;44.82;99281.91;4973770;28;20078;-70
2022/09/02 09:58:45;;;;;;;1.00;0.30;;;;;;;13.54;45.21;99291.00;4973903;28;20043;-70
2022/09/02 10:01:12;;;;;;;;;;;;;;;13.44;44.94;99280.34;4966585;28;20054;-70
2022/09/02 10:03:53;;;;;;;1.55;0.43;;;;;;;13.41;44.89;99289.47;4974077;28;20431;-69
2022/09/02 10:06:31;;;;;;;1.00;0.45;;;;;;;13.32;45.26;99289.59;4967330;28;20042;-68
2022/09/02 10:09:00;;;;;;;0.55;0.50;;;;;;;13.67;44.75;99295.34;4973381;28;20158;-69
2022/09/02 10:11:29;;;;;;;0.82;0.52;;;;;;;14.22;43.19;99298.78;4974855;28;20097;-68
2022/09/02 10:14:07;;;;;;;0.40;0.40;;;;;;;14.96;42.36;99291.31;4973866;28;20383;-69
2022/09/02 10:16:50;;;;;;;1.05;0.30;;;;;;;15.35;41.24;99313.38;4989537;28;20391;-69
2022/09/02 10:19:30;;;;;;;0.45;0.40;;;;;;;15.24;40.92;99303.91;5003426;28;20050;-71
2022/09/02 10:22:22;;;;;;;2.72;0.45;;;;;;;15.09;41.17;99296.41;4993037;28;20516;-70
2022/09/02 10:25:18;;;;;;;0.30;0.30;;;;;;;14.95;41.45;99306.50;4992800;28;20053;-70
2022/09/02 10:27:54;;;;;;;5.20;0.38;;;;;;;14.61;41.65;99308.97;4992592;28;20050;-71
2022/09/02 10:30:24;;;;;;;0.30;0.30;;;;;;;14.27;42.96;99322.91;4993308;28;20065;-70
2022/09/02 10:33:39;;;;;;;7.13;3.17;;;;;;;14.06;43.73;99333.50;4992420;28;20098;-69
2022/09/02 10:36:27;;;;;;;2.15;0.40;;;;;;;13.80;44.79;99342.44;4970181;28;20425;-71
2022/09/02 10:39:06;;;;;;;6.07;0.43;;;;;;;13.84;45.06;99340.56;4978451;28;20050;-69
2022/09/02 10:41:45;;;;;;;0.32;0.32;;;;;;;13.75;45.25;99339.09;4975427;28;20050;-71
2022/09/02 10:44:25;;;;;;;4.03;0.45;;;;;;;13.88;45.58;99349.03;4974118;28;20050;-69
2022/09/02 10:47:00;;;;;;;0.82;0.40;;;;;;;13.73;45.89;99355.41;4988593;28;20054;-71
2022/09/02 10:49:35;;;;;;;1.52;0.40;;;;;;;13.42;47.09;99360.94;4977443;28;20054;-73
2022/09/02 10:52:32;;;;;;;6.90;0.60;;;;;;;13.51;47.34;99370.78;4978028;28;20138;-69
2022/09/02 10:55:41;;;;;;;3.92;0.50;;;;;;;13.38;47.90;99368.41;4997436;28;20410;-71
2022/09/02 10:58:41;;;;;;;0.93;0.45;;;;;;;13.34;48.56;99381.44;4988079;28;20143;-68
2022/09/02 11:01:14;;;;;;;0.95;0.50;;;;;;;13.44;49.27;99380.94;4951660;28;20083;-71
2022/09/02 11:03:57;;;;;;;0.60;0.47;;;;;;;13.20;50.45;99383.84;4990176;28;20051;-70
2022/09/02 11:06:28;;;;;;;1.25;0.70;;;;;;;13.12;50.55;99376.41;4985681;28;20061;-68
2022/09/02 11:09:39;;;;;;;1.33;0.55;;;;;;;13.01;50.92;99380.84;4980602;28;20055;-69
2022/09/02 11:12:20;;;;;;;0.40;0.40;;;;;;;12.93;51.24;99380.59;4984817;28;20179;-69
2022/09/02 11:15:08;;;;;;;1.23;0.65;;;;;;;12.99;50.82;99385.94;4973474;28;20054;-68
2022/09/02 11:17:44;;;;;;;1.02;0.52;;;;;;;12.96;50.92;99375.47;4986077;28;20050;-70
2022/09/02 11:20:14;;;;;;;1.08;0.60;;;;;;;13.02;50.85;99380.47;4985418;28;20046;-69
2022/09/02 11:23:00;;;;;;;0.60;0.40;;;;;;;13.10;50.68;99381.50;4992399;28;20054;-69
2022/09/02 11:25:41;;;;;;;2.55;0.57;;;;;;;13.28;50.14;99385.66;4995245;28;20050;-70
2022/09/02 11:28:43;;;;;;;0.38;0.30;;;;;;;13.08;49.73;99384.66;4995811;28;20425;-69
2022/09/02 11:31:23;;;;;;;6.60;1.75;;;;;;;12.93;49.94;99386.19;4996074;28;20050;-71
2022/09/02 11:33:53;;;;;;;0.95;0.60;;;;;;;12.97;49.68;99388.28;4995884;28;20101;-71
2022/09/02 11:36:21;;;;;;;0.57;0.50;;;;;;;13.04;49.57;99383.75;4996439;28;20051;-70
2022/09/02 11:39:03;;;;;;;3.92;0.75;;;;;;;13.20;49.44;99397.81;4996237;28;20096;-71
2022/09/02 11:41:39;;;;;;;4.25;0.90;;;;;;;13.37;48.73;99389.94;4996828;28;20137;-70
2022/09/02 11:44:25;;;;;;;3.70;1.45;;;;;;;13.40;47.87;99403.19;4995820;28;20056;-70
2022/09/02 11:47:08;;;;;;;2.20;1.00;;;;;;;13.61;47.53;99411.38;4996070;28;20058;-70
2022/09/02 11:49:40;;;;;;;1.67;0.90;;;;;;;13.79;47.05;99409.88;4995762;28;20054;-71
2022/09/02 11:52:43;;;;;;;3.65;0.88;;;;;;;13.88;46.75;99390.97;4995569;28;20078;-70
2022/09/02 11:55:23;;;;;;;2.55;0.60;;;;;;;14.00;45.71;99388.91;4995724;28;20053;-70
2022/09/02 11:57:56;;;;;;;2.25;1.00;;;;;;;13.92;46.17;99394.69;4995690;28;20578;-71
2022/09/02 12:00:46;;;;;;;1.77;0.80;;;;;;;13.85;46.24;99406.47;4995992;28;20081;-71
2022/09/02 12:03:19;;;;;;;1.27;0.73;;;;;;;14.13;45.79;99398.06;4994447;28;20061;-71